Barra do Ribeiro, Brazil
Current Conditions -  °F | °C
As of 12:00 PM on Wednesday 22 Oct 2014 (Local Time) from SBPA Reporting Station
Clear Clear  
Wind Chill: 73°   Ceiling: Unl
Heat Index: 73°   Visibility: 6mi
Dew Point: 55°   Wind: 7mph
Humidity: 53%   Direction: 60°ENE
Pressure: 30.15"   Gusts: NA
Location:  30.29°S, 51.3°W
Report Text: SBPA 221400Z 06006KT CAVOK 23/13 Q1021
Loading
Personal Weather Stations






























Interactive Weather Map
Tropical Storm Tracking
New forecast layout! Learn more

10-Day Weather Forecast

Advertisements
Track Severe Weather on mobile